Time;durP1;ratioP1;P1;durP2;ratioP2;P2;SDS_P1;SDS_P2;PMS_P1;PMS_P2;Temp;Humidity;BMP_temperature;BMP_pressure;BME280_temperature;BME280_humidity;BME280_pressure;Samples;Min_cycle;Max_cycle;Signal;HPM_P1;HPM_P2
2022/09/02 00:01:58;;;;;;;10.30;3.40;;;;;;;10.83;46.63;99409.46;105911;1277;99365;-64
2022/09/02 00:04:28;;;;;;;10.20;3.70;;;;;;;10.82;46.57;99411.89;105968;1276;99235;-63
2022/09/02 00:07:00;;;;;;;8.90;3.40;;;;;;;10.76;46.54;99406.79;105977;1276;113427;-65
2022/09/02 00:09:29;;;;;;;7.80;3.10;;;;;;;10.71;46.62;99407.30;106002;1276;96591;-62
2022/09/02 00:11:57;;;;;;;8.60;3.00;;;;;;;10.67;46.83;99405.23;105970;1277;108704;-64
2022/09/02 00:14:33;;;;;;;10.20;3.50;;;;;;;10.64;46.85;99405.99;106021;1277;99419;-64
2022/09/02 00:17:03;;;;;;;10.30;3.30;;;;;;;10.61;47.02;99403.00;105924;1276;99195;-68
2022/09/02 00:19:36;;;;;;;8.90;3.00;;;;;;;10.58;47.01;99407.48;105859;1276;113376;-64
2022/09/02 00:22:04;;;;;;;8.30;3.00;;;;;;;10.53;47.06;99402.61;106012;1276;99348;-64
2022/09/02 00:24:33;;;;;;;5.90;2.60;;;;;;;10.50;47.12;99406.19;105771;1279;108434;-65
2022/09/02 00:27:05;;;;;;;9.90;3.40;;;;;;;10.50;47.21;99402.67;105980;1277;99310;-63
2022/09/02 00:29:33;;;;;;;8.90;3.10;;;;;;;10.48;47.20;99401.19;105806;1276;99228;-64
2022/09/02 00:32:01;;;;;;;9.50;3.40;;;;;;;10.44;47.28;99397.91;105745;1276;113162;-64
2022/09/02 00:34:30;;;;;;;8.80;3.20;;;;;;;10.43;47.43;99398.35;107715;1276;97066;-63
2022/09/02 00:36:58;;;;;;;7.60;3.10;;;;;;;10.40;47.52;99403.27;107273;1276;106727;-63
2022/09/02 00:39:26;;;;;;;6.90;3.10;;;;;;;10.40;47.59;99400.09;105735;1276;99326;-63
2022/09/02 00:41:55;;;;;;;7.80;3.10;;;;;;;10.40;47.64;99394.96;107744;1276;97318;-64
2022/09/02 00:44:25;;;;;;;7.60;2.90;;;;;;;10.39;47.64;99394.30;106742;1276;112765;-65
2022/09/02 00:46:53;;;;;;;9.20;3.20;;;;;;;10.39;47.81;99394.51;105865;1277;99309;-63
2022/09/02 00:49:32;;;;;;;9.60;3.00;;;;;;;10.37;47.86;99391.58;105751;1279;109785;-61
2022/09/02 00:52:20;;;;;;;8.00;2.90;;;;;;;10.34;47.96;99397.84;105937;1276;99233;-64
2022/09/02 00:55:17;;;;;;;8.90;2.90;;;;;;;10.30;48.07;99398.46;105968;1276;99302;-66
2022/09/02 00:58:00;;;;;;;6.70;2.90;;;;;;;10.25;48.17;99400.35;105913;1276;112821;-66
2022/09/02 01:00:37;;;;;;;8.20;3.20;;;;;;;10.20;48.19;99402.95;105841;1277;99041;-62
2022/09/02 01:03:10;;;;;;;10.20;3.50;;;;;;;10.15;48.24;99401.73;105984;1276;107748;-61
2022/09/02 01:05:45;;;;;;;9.50;3.40;;;;;;;10.10;48.30;99404.54;105752;1277;97725;-64
2022/09/02 01:08:19;;;;;;;9.90;3.10;;;;;;;10.08;48.45;99405.04;105864;1277;99335;-64
2022/09/02 01:10:48;;;;;;;8.10;3.10;;;;;;;10.04;48.49;99405.59;106725;1276;113359;-62
2022/09/02 01:13:24;;;;;;;9.40;3.00;;;;;;;10.00;48.49;99406.07;105932;1276;99339;-64
2022/09/02 01:16:11;;;;;;;9.20;3.10;;;;;;;9.99;48.51;99404.70;105785;1277;107935;-66
2022/09/02 01:18:46;;;;;;;6.90;3.00;;;;;;;9.93;48.67;99407.02;105897;1276;99328;-63
2022/09/02 01:21:16;;;;;;;7.60;3.10;;;;;;;9.91;48.72;99404.71;105890;1277;99219;-63
2022/09/02 01:23:48;;;;;;;6.50;2.90;;;;;;;9.89;48.71;99405.41;105974;1277;112776;-64
2022/09/02 01:26:18;;;;;;;8.60;3.30;;;;;;;9.87;48.85;99405.33;105962;1276;99263;-65
2022/09/02 01:28:46;;;;;;;8.00;3.10;;;;;;;9.86;48.92;99405.17;105932;1277;108367;-63
2022/09/02 01:31:15;;;;;;;9.80;3.60;;;;;;;9.83;48.97;99406.77;105952;1276;99291;-63
2022/09/02 01:33:45;;;;;;;8.30;3.10;;;;;;;9.79;48.99;99404.41;105937;1276;99227;-63
2022/09/02 01:36:15;;;;;;;8.30;3.10;;;;;;;9.75;49.12;99404.29;105945;1276;113857;-64
2022/09/02 01:38:44;;;;;;;9.20;3.30;;;;;;;9.74;49.24;99408.81;105916;1276;100166;-65
2022/09/02 01:41:14;;;;;;;8.00;3.10;;;;;;;9.71;49.28;99409.87;105913;1276;108336;-65
2022/09/02 01:43:42;;;;;;;7.50;3.40;;;;;;;9.66;49.23;99408.20;105900;1277;99331;-65
2022/09/02 01:46:11;;;;;;;8.00;2.90;;;;;;;9.64;49.37;99406.57;105862;1277;99230;-63
2022/09/02 01:48:41;;;;;;;11.30;3.40;;;;;;;9.62;49.36;99410.04;105924;1277;114160;-65
2022/09/02 01:51:19;;;;;;;8.20;3.40;;;;;;;9.60;49.33;99409.13;105929;1276;99405;-64
2022/09/02 01:53:49;;;;;;;11.10;4.00;;;;;;;9.56;49.54;99413.65;105754;1278;108680;-62
2022/09/02 01:56:19;;;;;;;7.50;3.10;;;;;;;9.49;49.60;99417.40;105937;1277;96629;-65
2022/09/02 01:58:47;;;;;;;8.40;3.00;;;;;;;9.47;49.60;99417.02;105827;1278;99223;-63
2022/09/02 02:01:20;;;;;;;9.00;3.20;;;;;;;9.47;49.81;99417.91;105942;1276;112812;-63
2022/09/02 02:03:48;;;;;;;7.80;3.10;;;;;;;9.46;49.70;99413.02;105879;1276;99321;-62
2022/09/02 02:06:19;;;;;;;10.30;3.10;;;;;;;9.44;49.77;99412.95;105788;1277;109008;-62
2022/09/02 02:08:48;;;;;;;7.10;2.90;;;;;;;9.41;49.86;99412.95;105902;1276;99326;-64
2022/09/02 02:11:23;;;;;;;9.50;3.50;;;;;;;9.37;49.77;99412.67;105884;1277;99223;-64
2022/09/02 02:13:53;;;;;;;8.80;3.50;;;;;;;9.33;50.03;99410.60;105916;1276;112778;-64
2022/09/02 02:16:21;;;;;;;9.40;3.70;;;;;;;9.32;50.18;99409.62;105944;1276;98964;-64
2022/09/02 02:18:51;;;;;;;8.20;3.40;;;;;;;9.30;50.02;99405.14;105889;1276;108992;-64
2022/09/02 02:21:19;;;;;;;7.80;3.10;;;;;;;9.29;50.19;99407.54;105955;1277;99355;-64
2022/09/02 02:23:47;;;;;;;9.70;3.20;;;;;;;9.28;50.21;99409.38;105846;1277;96729;-64
2022/09/02 02:26:15;;;;;;;9.30;3.60;;;;;;;9.26;50.24;99414.77;105912;1277;114122;-64
2022/09/02 02:28:43;;;;;;;7.50;3.40;;;;;;;9.23;50.18;99414.41;105938;1277;97718;-63
2022/09/02 02:31:16;;;;;;;8.70;3.20;;;;;;;9.19;50.33;99410.61;105916;1277;107952;-64
2022/09/02 02:33:47;;;;;;;9.10;3.30;;;;;;;9.15;50.45;99412.64;105839;1277;99301;-65
2022/09/02 02:36:18;;;;;;;9.90;3.60;;;;;;;9.13;50.58;99411.31;105961;1276;96668;-64
2022/09/02 02:38:46;;;;;;;8.10;3.60;;;;;;;9.11;50.55;99411.25;105847;1277;112660;-65
2022/09/02 02:41:16;;;;;;;8.10;3.10;;;;;;;9.10;50.62;99411.51;105961;1276;99256;-64
2022/09/02 02:43:44;;;;;;;10.90;3.80;;;;;;;9.08;50.72;99411.28;106014;1276;107843;-64
2022/09/02 02:46:17;;;;;;;8.80;3.70;;;;;;;9.02;50.62;99410.36;105982;1277;96617;-62
2022/09/02 02:48:48;;;;;;;11.20;3.60;;;;;;;8.98;50.65;99412.60;106041;1276;99246;-64
2022/09/02 02:51:17;;;;;;;9.70;3.80;;;;;;;8.92;50.90;99407.08;106071;1277;113150;-64
2022/09/02 02:53:47;;;;;;;8.70;3.50;;;;;;;8.92;50.92;99409.25;105925;1276;97641;-63
2022/09/02 02:56:15;;;;;;;11.80;3.70;;;;;;;8.93;50.98;99407.58;105901;1277;108332;-65
2022/09/02 02:58:45;;;;;;;10.80;3.50;;;;;;;8.94;51.05;99410.15;105921;1276;99220;-62
2022/09/02 03:01:12;;;;;;;12.40;3.80;;;;;;;8.94;51.01;99412.26;105938;1277;99294;-64
2022/09/02 03:03:42;;;;;;;11.70;3.40;;;;;;;8.92;51.01;99410.10;105959;1277;112366;-64
2022/09/02 03:06:14;;;;;;;9.20;3.40;;;;;;;8.90;51.25;99408.79;105973;1276;96634;-64
2022/09/02 03:08:47;;;;;;;9.00;3.40;;;;;;;8.89;51.30;99408.86;105915;1277;108254;-64
2022/09/02 03:11:21;;;;;;;13.50;4.30;;;;;;;8.87;51.31;99404.52;105897;1276;99389;-64
2022/09/02 03:13:54;;;;;;;9.40;3.40;;;;;;;8.86;51.28;99403.73;105842;1277;99244;-63
2022/09/02 03:16:21;;;;;;;11.60;4.20;;;;;;;8.84;51.36;99404.23;105920;1276;113180;-62
2022/09/02 03:18:52;;;;;;;10.30;3.60;;;;;;;8.81;51.42;99401.73;105953;1277;99289;-63
2022/09/02 03:21:23;;;;;;;11.00;3.80;;;;;;;8.77;51.51;99401.79;105930;1276;108550;-60
2022/09/02 03:23:51;;;;;;;10.00;3.70;;;;;;;8.75;51.49;99404.05;105755;1277;99318;-61
2022/09/02 03:26:27;;;;;;;9.60;3.70;;;;;;;8.71;51.70;99405.67;105864;1277;99344;-62
2022/09/02 03:28:56;;;;;;;9.30;3.40;;;;;;;8.67;51.79;99402.76;105780;1279;114178;-62
2022/09/02 03:31:28;;;;;;;9.00;3.50;;;;;;;8.64;51.51;99407.89;105957;1276;96914;-60
2022/09/02 03:33:56;;;;;;;7.50;3.50;;;;;;;8.59;51.61;99406.77;105862;1277;108333;-65
2022/09/02 03:36:28;;;;;;;12.00;3.40;;;;;;;8.53;51.78;99402.15;105940;1277;99223;-63
2022/09/02 03:39:01;;;;;;;13.10;3.60;;;;;;;8.50;51.70;99408.48;105995;1277;97808;-61
2022/09/02 03:41:29;;;;;;;;;;;;;;;8.49;51.81;99409.27;106038;1277;112342;-62
2022/09/02 03:44:00;;;;;;;9.40;3.50;;;;;;;8.44;51.94;99410.06;106003;1277;96937;-63
2022/09/02 03:46:30;;;;;;;11.70;3.70;;;;;;;8.39;51.94;99412.11;106077;1277;108314;-62
2022/09/02 03:49:02;;;;;;;9.60;3.70;;;;;;;8.33;52.01;99415.27;106046;1277;99221;-64
2022/09/02 03:51:33;;;;;;;8.80;3.70;;;;;;;8.29;51.95;99420.84;106088;1277;99313;-62
2022/09/02 03:54:02;;;;;;;11.10;3.80;;;;;;;8.26;52.04;99424.91;102989;1278;4104542;-63
2022/09/02 03:56:33;;;;;;;8.00;3.40;;;;;;;8.23;51.93;99425.60;105903;1276;99218;-64
2022/09/02 03:59:04;;;;;;;7.60;3.40;;;;;;;8.21;52.19;99430.26;105909;1276;108128;-62
2022/09/02 04:01:32;;;;;;;7.90;3.30;;;;;;;8.20;52.32;99434.23;105889;1277;99259;-63
2022/09/02 04:04:06;;;;;;;11.50;4.00;;;;;;;8.19;52.45;99433.52;105975;1277;99223;-65
2022/09/02 04:06:35;;;;;;;13.80;4.20;;;;;;;8.21;52.48;99435.03;105859;1278;113393;-63
2022/09/02 04:09:08;;;;;;;12.20;3.70;;;;;;;8.22;52.47;99435.72;105909;1277;99233;-64
2022/09/02 04:11:44;;;;;;;12.10;3.90;;;;;;;8.22;52.57;99437.13;105943;1277;108440;-63
2022/09/02 04:14:11;;;;;;;15.20;4.30;;;;;;;8.20;52.36;99440.55;105994;1277;99251;-64
2022/09/02 04:16:44;;;;;;;11.30;4.10;;;;;;;8.20;52.47;99442.71;105923;1277;99262;-64
2022/09/02 04:19:12;;;;;;;13.90;5.20;;;;;;;8.19;52.74;99451.05;105989;1277;113134;-63
2022/09/02 04:21:43;;;;;;;12.50;4.40;;;;;;;8.18;52.69;99446.55;105999;1278;99301;-64
2022/09/02 04:24:14;;;;;;;14.70;4.70;;;;;;;8.17;52.78;99446.24;105849;1276;107584;-68
2022/09/02 04:26:42;;;;;;;15.50;5.40;;;;;;;8.17;52.95;99447.83;105827;1277;99419;-64
2022/09/02 04:29:16;;;;;;;16.60;4.80;;;;;;;8.18;52.98;99450.56;105753;1279;99199;-64
2022/09/02 04:31:52;;;;;;;16.80;5.10;;;;;;;8.20;53.09;99452.23;105922;1278;112753;-63
2022/09/02 04:34:19;;;;;;;14.20;4.90;;;;;;;8.21;53.20;99451.81;105935;1277;100432;-64
2022/09/02 04:36:52;;;;;;;11.40;5.00;;;;;;;8.23;53.16;99452.79;105934;1277;106942;-64
2022/09/02 04:39:22;;;;;;;17.50;5.60;;;;;;;8.26;53.30;99453.52;105922;1278;99242;-67
2022/09/02 04:41:52;;;;;;;19.30;5.80;;;;;;;8.27;53.32;99454.16;105990;1277;99315;-66
2022/09/02 04:44:24;;;;;;;18.80;6.30;;;;;;;8.30;53.35;99457.17;105977;1277;113360;-67
2022/09/02 04:46:55;;;;;;;17.40;6.30;;;;;;;8.32;53.56;99454.21;105896;1278;99304;-65
2022/09/02 04:49:26;;;;;;;16.70;6.10;;;;;;;8.36;53.68;99456.66;105784;1278;108645;-64
2022/09/02 04:51:54;;;;;;;15.90;5.70;;;;;;;8.38;53.60;99460.40;105901;1277;99387;-66
2022/09/02 04:54:23;;;;;;;15.10;6.00;;;;;;;8.41;53.42;99459.34;105916;1277;97740;-64
2022/09/02 04:56:52;;;;;;;16.70;5.80;;;;;;;8.45;53.88;99458.96;105897;1277;113357;-64
2022/09/02 04:59:23;;;;;;;18.60;6.00;;;;;;;8.48;53.77;99460.23;106351;1277;97740;-65
2022/09/02 05:01:52;;;;;;;13.20;5.60;;;;;;;8.51;53.94;99458.67;105845;1277;107865;-63
2022/09/02 05:04:22;;;;;;;16.70;5.80;;;;;;;8.55;53.71;99467.11;105925;1277;97695;-63
2022/09/02 05:06:51;;;;;;;17.00;5.80;;;;;;;8.60;53.99;99469.98;105905;1277;99301;-63
2022/09/02 05:09:20;;;;;;;16.70;5.50;;;;;;;8.65;53.96;99470.20;106000;1278;112468;-61
2022/09/02 05:11:50;;;;;;;18.50;5.70;;;;;;;8.71;54.10;99472.04;105767;1278;99305;-63
2022/09/02 05:14:19;;;;;;;16.30;5.70;;;;;;;8.76;54.12;99470.30;105936;1277;107326;-64
2022/09/02 05:16:55;;;;;;;18.30;6.40;;;;;;;8.80;54.25;99468.10;105787;1281;99278;-62
2022/09/02 05:19:26;;;;;;;20.60;6.70;;;;;;;8.86;54.35;99463.70;106022;1278;99204;-65
2022/09/02 05:21:55;;;;;;;19.60;5.80;;;;;;;8.91;54.28;99463.02;105939;1277;112764;-65
2022/09/02 05:24:29;;;;;;;17.30;6.20;;;;;;;8.97;54.50;99462.16;105953;1277;99332;-65
2022/09/02 05:26:56;;;;;;;17.90;6.30;;;;;;;9.02;54.49;99462.73;105990;1278;107830;-64
2022/09/02 05:29:27;;;;;;;19.30;6.40;;;;;;;9.08;54.60;99458.31;105961;1277;99298;-64
2022/09/02 05:31:58;;;;;;;17.90;6.40;;;;;;;9.14;54.68;99457.43;105994;1277;99227;-66
2022/09/02 05:34:28;;;;;;;17.30;6.00;;;;;;;9.21;54.69;99459.67;106002;1277;113961;-64
2022/09/02 05:36:58;;;;;;;16.00;5.80;;;;;;;9.29;54.83;99456.73;106069;1277;99229;-63
2022/09/02 05:39:31;;;;;;;19.60;6.60;;;;;;;9.36;54.78;99457.53;106011;1278;107161;-63
2022/09/02 05:41:59;;;;;;;18.40;6.30;;;;;;;9.44;54.90;99455.98;106013;1277;99227;-64
2022/09/02 05:44:30;;;;;;;22.40;5.60;;;;;;;9.52;55.02;99457.77;106021;1277;99228;-64
2022/09/02 05:46:59;;;;;;;19.10;5.40;;;;;;;9.62;54.98;99460.33;105988;1277;115278;-63
2022/09/02 05:49:30;;;;;;;12.50;4.70;;;;;;;9.72;55.06;99458.16;105945;1277;99289;-64
2022/09/02 05:52:00;;;;;;;16.40;6.20;;;;;;;9.82;55.18;99456.99;105954;1277;108433;-61
2022/09/02 05:54:36;;;;;;;16.40;6.10;;;;;;;9.92;55.28;99453.00;106005;1277;99285;-61
2022/09/02 05:57:10;;;;;;;15.80;5.20;;;;;;;10.02;55.31;99456.06;106047;1278;99222;-65
2022/09/02 05:59:43;;;;;;;15.90;5.20;;;;;;;10.12;55.38;99461.48;105973;1277;112492;-65
2022/09/02 06:02:16;;;;;;;12.40;5.10;;;;;;;10.22;55.45;99463.48;106075;1277;99112;-66
2022/09/02 06:04:50;;;;;;;14.90;4.60;;;;;;;10.32;55.48;99460.54;105964;1277;105987;-67
2022/09/02 06:07:24;;;;;;;15.40;5.60;;;;;;;10.41;55.54;99459.95;105972;1277;99186;-65
2022/09/02 06:09:55;;;;;;;14.70;4.80;;;;;;;10.50;55.57;99457.23;105976;1277;99248;-64
2022/09/02 06:12:23;;;;;;;13.50;5.00;;;;;;;10.60;55.61;99453.10;106052;1277;113434;-65
2022/09/02 06:14:54;;;;;;;15.90;4.90;;;;;;;10.68;55.62;99455.36;106032;1277;96539;-64
2022/09/02 06:17:26;;;;;;;12.00;4.80;;;;;;;10.77;55.70;99456.42;105964;1277;108297;-61
2022/09/02 06:19:56;;;;;;;17.80;5.20;;;;;;;10.85;55.72;99447.65;105955;1277;96666;-63
2022/09/02 06:22:27;;;;;;;12.70;5.20;;;;;;;10.95;55.75;99446.32;105973;1276;99313;-64
2022/09/02 06:24:57;;;;;;;16.00;5.30;;;;;;;11.05;55.83;99446.17;105959;1277;114061;-65
2022/09/02 06:27:25;;;;;;;17.60;5.40;;;;;;;11.14;55.77;99444.11;105969;1277;99229;-65
2022/09/02 06:29:58;;;;;;;15.30;4.90;;;;;;;11.24;55.72;99449.84;105971;1276;108382;-62
2022/09/02 06:32:29;;;;;;;;;;;;;;;11.33;55.87;99449.41;105970;1277;99237;-64
2022/09/02 06:34:57;;;;;;;13.10;4.40;;;;;;;11.41;56.09;99451.32;105961;1276;99217;-64
2022/09/02 06:37:26;;;;;;;17.60;5.50;;;;;;;11.50;55.90;99451.72;105969;1277;113470;-63
2022/09/02 06:39:57;;;;;;;18.00;5.10;;;;;;;11.60;55.98;99448.94;105890;1278;99311;-64
2022/09/02 06:42:27;;;;;;;12.20;4.60;;;;;;;11.69;55.95;99447.05;105970;1277;108384;-64
2022/09/02 06:44:57;;;;;;;14.80;4.80;;;;;;;11.78;55.89;99448.52;105957;1277;96654;-64
2022/09/02 06:47:25;;;;;;;15.40;4.60;;;;;;;11.88;56.07;99448.49;105802;1278;96639;-65
2022/09/02 06:49:55;;;;;;;16.80;4.70;;;;;;;12.01;55.99;99450.00;105961;1277;113164;-65
2022/09/02 06:52:23;;;;;;;17.20;4.70;;;;;;;12.11;55.94;99449.40;105980;1277;99223;-64
2022/09/02 06:54:54;;;;;;;13.50;4.50;;;;;;;12.22;55.98;99444.89;105964;1277;108340;-65
2022/09/02 06:57:22;;;;;;;11.80;4.10;;;;;;;12.32;56.01;99444.17;105950;1277;99278;-62
2022/09/02 07:00:11;;;;;;;15.60;4.70;;;;;;;12.42;55.94;99440.39;105977;1277;99274;-64
2022/09/02 07:02:39;;;;;;;9.60;4.30;;;;;;;12.53;56.08;99444.58;105957;1277;112948;-64
2022/09/02 07:05:14;;;;;;;16.00;5.00;;;;;;;12.61;55.90;99445.20;106063;1277;99341;-67
2022/09/02 07:07:48;;;;;;;14.10;4.80;;;;;;;12.70;56.01;99446.70;106035;1277;107774;-66
2022/09/02 07:10:19;;;;;;;16.90;4.80;;;;;;;12.78;56.04;99452.51;105944;1277;99262;-64
2022/09/02 07:12:49;;;;;;;12.60;4.10;;;;;;;12.88;56.14;99453.70;106072;1277;99377;-64
2022/09/02 07:15:20;;;;;;;16.30;5.00;;;;;;;13.01;56.14;99450.77;105951;1277;113926;-66
2022/09/02 07:17:50;;;;;;;11.90;3.70;;;;;;;13.18;56.18;99454.84;105975;1277;99320;-63
2022/09/02 07:20:18;;;;;;;12.20;4.30;;;;;;;13.33;56.07;99455.08;105911;1277;108387;-65
2022/09/02 07:22:48;;;;;;;12.20;3.80;;;;;;;13.50;56.16;99458.22;105980;1277;99216;-63
2022/09/02 07:25:19;;;;;;;13.20;3.80;;;;;;;13.67;56.04;99457.58;106029;1277;99234;-62
2022/09/02 07:27:50;;;;;;;9.00;3.20;;;;;;;14.01;55.99;99455.62;106007;1276;112549;-63
2022/09/02 07:30:25;;;;;;;10.20;4.10;;;;;;;15.33;54.65;99450.55;105952;1277;96749;-64
2022/09/02 07:32:55;;;;;;;9.40;3.50;;;;;;;16.89;54.30;99450.67;105957;1277;107724;-64
2022/09/02 07:35:30;;;;;;;9.90;3.10;;;;;;;18.39;53.97;99444.16;105923;1277;99921;-64
2022/09/02 07:38:02;;;;;;;9.90;3.40;;;;;;;19.89;53.72;99442.04;105996;1277;99329;-64
2022/09/02 07:40:35;;;;;;;11.90;3.40;;;;;;;21.29;53.22;99442.98;105996;1275;112740;-63
2022/09/02 07:43:07;;;;;;;12.50;3.60;;;;;;;22.68;53.03;99440.24;106050;1277;99301;-63
2022/09/02 07:45:37;;;;;;;10.90;3.60;;;;;;;24.06;52.94;99437.33;105941;1277;108726;-64
2022/09/02 07:48:08;;;;;;;9.20;3.40;;;;;;;25.10;52.89;99437.45;105982;1276;99340;-64
2022/09/02 07:50:38;;;;;;;6.30;3.10;;;;;;;26.01;52.61;99438.27;106054;1277;99220;-64
2022/09/02 07:53:12;;;;;;;8.10;2.80;;;;;;;26.99;52.26;99434.85;106010;1277;113359;-64
2022/09/02 07:55:44;;;;;;;12.30;3.30;;;;;;;28.06;51.81;99431.20;105999;1277;97698;-65
2022/09/02 07:58:17;;;;;;;11.10;3.30;;;;;;;28.71;51.70;99426.59;105981;1277;107720;-64
2022/09/02 08:00:49;;;;;;;5.70;2.70;;;;;;;29.32;51.41;99427.77;106007;1276;99132;-65
2022/09/02 08:03:23;;;;;;;10.50;2.80;;;;;;;29.75;50.66;99428.94;106010;1276;96621;-65
2022/09/02 08:05:56;;;;;;;6.80;2.60;;;;;;;30.17;50.84;99430.13;105870;1277;112865;-66
2022/09/02 08:08:27;;;;;;;8.50;3.40;;;;;;;30.61;50.65;99432.37;105952;1277;99202;-65
2022/09/02 08:10:59;;;;;;;5.20;2.90;;;;;;;30.90;49.69;99424.13;105998;1277;108788;-65
2022/09/02 08:13:35;;;;;;;7.70;3.20;;;;;;;31.38;49.43;99422.77;105973;1276;99253;-66
2022/09/02 08:16:07;;;;;;;6.30;2.90;;;;;;;31.72;49.02;99422.51;106014;1277;96643;-65
2022/09/02 08:18:39;;;;;;;8.50;2.60;;;;;;;32.02;48.66;99420.02;105962;1277;112541;-67
2022/09/02 08:21:07;;;;;;;11.50;2.60;;;;;;;32.20;48.23;99418.45;106014;1277;97097;-65
2022/09/02 08:23:38;;;;;;;10.80;2.70;;;;;;;32.10;48.03;99417.66;105955;1277;108407;-66
2022/09/02 08:26:10;;;;;;;8.30;2.80;;;;;;;31.86;47.11;99415.27;106000;1276;99305;-65
2022/09/02 08:28:40;;;;;;;6.20;2.30;;;;;;;31.80;46.70;99419.23;105977;1277;99214;-65
2022/09/02 08:31:11;;;;;;;6.40;2.30;;;;;;;31.78;46.52;99412.98;105976;1277;113354;-66
2022/09/02 08:33:39;;;;;;;10.00;2.80;;;;;;;31.67;46.18;99411.16;105991;1277;96578;-66
2022/09/02 08:36:10;;;;;;;7.20;2.60;;;;;;;31.52;45.69;99412.27;105980;1276;108096;-65
2022/09/02 08:38:44;;;;;;;7.10;2.40;;;;;;;31.17;44.71;99413.53;105988;1277;99953;-63
2022/09/02 08:41:24;;;;;;;8.50;2.60;;;;;;;30.76;44.28;99415.51;105937;1277;99195;-64
2022/09/02 08:44:01;;;;;;;7.60;2.30;;;;;;;30.65;43.78;99420.32;105905;1277;112353;-63
2022/09/02 08:46:34;;;;;;;6.40;2.20;;;;;;;30.68;43.30;99415.85;105899;1277;99322;-62
2022/09/02 08:49:24;;;;;;;6.20;2.10;;;;;;;30.55;42.65;99417.05;105940;1276;108373;-64
2022/09/02 08:52:00;;;;;;;4.60;1.50;;;;;;;30.71;42.02;99404.40;105972;1277;100001;-64
2022/09/02 08:54:54;;;;;;;25.10;2.80;;;;;;;30.73;41.93;99401.44;105875;1278;100225;-65
2022/09/02 08:57:29;;;;;;;4.10;1.20;;;;;;;30.65;41.48;99403.42;106013;1276;113373;-66
2022/09/02 09:00:03;;;;;;;4.40;1.70;;;;;;;30.87;41.25;99404.23;106111;1276;97935;-69
2022/09/02 09:02:55;;;;;;;7.60;3.10;;;;;;;30.96;40.86;99406.12;106001;1276;108274;-69
2022/09/02 09:05:43;;;;;;;5.80;1.50;;;;;;;31.11;40.88;99397.40;105946;1276;99362;-69
2022/09/02 09:08:46;;;;;;;9.00;1.80;;;;;;;30.90;40.17;99399.84;106009;1276;100379;-69
2022/09/02 09:11:27;;;;;;;4.30;1.40;;;;;;;30.53;39.49;99403.77;105737;1277;112847;-65
2022/09/02 09:14:13;;;;;;;6.90;2.10;;;;;;;30.24;39.18;99399.71;106050;1276;99236;-67
2022/09/02 09:17:01;;;;;;;4.70;2.10;;;;;;;30.05;38.95;99403.27;105981;1277;111186;-67
2022/09/02 09:19:38;;;;;;;7.10;1.90;;;;;;;30.00;38.68;99396.48;105974;1277;99330;-66
2022/09/02 09:22:16;;;;;;;6.30;1.80;;;;;;;30.07;38.58;99400.63;106017;1276;99235;-70
2022/09/02 09:24:55;;;;;;;7.30;2.10;;;;;;;30.00;37.88;99397.41;106140;1277;111728;-68
2022/09/02 09:27:23;;;;;;;4.70;1.60;;;;;;;29.82;38.07;99393.33;106070;1277;99093;-68
2022/09/02 09:29:52;;;;;;;7.10;2.10;;;;;;;29.62;37.56;99394.88;106036;1276;108290;-65
2022/09/02 09:32:32;;;;;;;3.90;1.80;;;;;;;29.40;37.41;99395.23;106119;1277;96640;-67
2022/09/02 09:35:10;;;;;;;6.90;2.00;;;;;;;29.27;37.13;99397.88;106135;1277;99230;-66
2022/09/02 09:37:47;;;;;;;4.30;2.50;;;;;;;29.18;37.03;99396.77;106124;1277;112864;-63
2022/09/02 09:40:24;;;;;;;7.40;2.40;;;;;;;29.06;36.99;99395.10;106008;1277;99326;-66
2022/09/02 09:43:04;;;;;;;9.20;2.70;;;;;;;29.02;36.80;99388.41;106042;1277;107783;-65
2022/09/02 09:45:51;;;;;;;4.40;2.20;;;;;;;28.79;36.34;99388.09;106048;1277;96649;-65
2022/09/02 09:50:59;;;;;;;12.10;2.80;;;;;;;28.10;35.98;99387.48;106037;1277;113339;-65
2022/09/02 09:53:37;;;;;;;5.00;2.40;;;;;;;27.81;36.06;99383.42;105982;1276;99647;-65
2022/09/02 09:56:26;;;;;;;8.70;2.80;;;;;;;27.61;35.95;99383.58;105934;1276;108360;-65
2022/09/02 09:58:56;;;;;;;7.00;2.20;;;;;;;27.32;35.41;99376.32;106083;1275;99286;-65
2022/09/02 10:01:33;;;;;;;6.70;2.60;;;;;;;26.87;34.95;99381.67;105941;1276;99311;-70
2022/09/02 10:04:27;;;;;;;16.00;4.70;;;;;;;26.33;34.95;99377.56;105869;1276;112779;-66
2022/09/02 10:07:34;;;;;;;8.70;3.40;;;;;;;25.92;34.88;99372.15;105897;1276;99465;-67
2022/09/02 10:10:20;;;;;;;9.00;2.80;;;;;;;25.65;34.75;99366.86;105849;1277;108329;-68
2022/09/02 10:12:54;;;;;;;10.40;3.20;;;;;;;25.43;34.53;99360.58;105925;1277;99297;-66
2022/09/02 10:15:33;;;;;;;12.40;2.60;;;;;;;25.12;34.22;99356.84;105899;1276;96565;-66
2022/09/02 10:18:16;;;;;;;6.00;1.90;;;;;;;24.79;33.96;99358.99;105868;1276;113452;-67
2022/09/02 10:21:12;;;;;;;4.70;1.80;;;;;;;24.59;33.91;99358.61;105968;1276;99361;-66
2022/09/02 10:24:12;;;;;;;6.10;1.90;;;;;;;24.42;33.87;99360.13;105927;1277;107128;-68
2022/09/02 10:26:52;;;;;;;6.20;2.50;;;;;;;24.24;33.70;99355.04;105900;1277;99313;-68
2022/09/02 10:29:59;;;;;;;6.20;1.80;;;;;;;24.20;33.64;99347.38;106015;1277;99229;-69
2022/09/02 10:32:38;;;;;;;5.70;1.40;;;;;;;24.27;33.74;99344.84;106012;1277;113354;-69
2022/09/02 10:35:15;;;;;;;8.50;2.40;;;;;;;24.31;33.50;99350.95;105925;1277;99532;-72
2022/09/02 10:38:08;;;;;;;8.80;2.70;;;;;;;24.22;33.41;99347.10;105999;1276;108137;-67
2022/09/02 10:41:13;;;;;;;13.70;5.60;;;;;;;24.04;33.37;99345.70;105695;1276;99239;-69
2022/09/02 10:44:04;;;;;;;9.50;2.80;;;;;;;23.95;33.40;99341.69;105876;1276;99217;-67
2022/09/02 10:47:03;;;;;;;6.90;2.30;;;;;;;23.83;33.24;99342.61;105884;1276;112914;-68
2022/09/02 10:50:05;;;;;;;6.80;2.40;;;;;;;23.76;33.21;99348.27;105886;1276;99233;-67
2022/09/02 10:52:47;;;;;;;7.60;2.80;;;;;;;23.68;33.26;99350.34;105933;1276;108345;-67
2022/09/02 10:55:43;;;;;;;7.80;2.60;;;;;;;23.61;33.01;99347.61;105911;1276;99221;-66
2022/09/02 10:58:21;;;;;;;4.80;2.20;;;;;;;23.48;32.93;99349.87;105952;1276;99281;-64
2022/09/02 11:00:55;;;;;;;6.20;2.40;;;;;;;23.41;32.85;99352.29;105892;1277;112752;-67
2022/09/02 11:03:46;;;;;;;8.60;2.30;;;;;;;23.33;32.98;99352.43;105862;1276;100324;-65
2022/09/02 11:06:37;;;;;;;6.00;2.20;;;;;;;23.25;32.62;99352.73;105940;1276;107843;-67
2022/09/02 11:09:38;;;;;;;5.30;2.50;;;;;;;23.19;32.73;99344.08;105843;1277;99444;-66
2022/09/02 11:12:31;;;;;;;7.50;2.50;;;;;;;23.18;32.53;99344.02;105896;1275;96653;-66
2022/09/02 11:15:34;;;;;;;5.30;2.20;;;;;;;23.15;32.75;99335.45;105900;1276;112717;-64
2022/09/02 11:18:15;;;;;;;5.10;2.40;;;;;;;23.17;32.66;99334.45;105942;1276;97062;-65
2022/09/02 11:21:00;;;;;;;6.80;2.70;;;;;;;23.22;32.71;99336.64;105943;1277;107708;-66
2022/09/02 11:23:52;;;;;;;7.10;2.60;;;;;;;23.24;32.60;99336.93;105844;1276;96633;-67
2022/09/02 11:26:46;;;;;;;9.90;2.90;;;;;;;23.30;32.67;99336.02;105912;1276;97682;-67
2022/09/02 11:29:23;;;;;;;6.70;2.50;;;;;;;23.36;32.72;99341.77;105808;1276;113341;-67
2022/09/02 11:32:06;;;;;;;8.60;2.60;;;;;;;23.38;32.49;99334.88;105877;1276;99202;-66
2022/09/02 11:34:51;;;;;;;7.80;2.40;;;;;;;23.36;32.41;99333.98;105908;1276;108235;-66
2022/09/02 11:37:31;;;;;;;6.00;2.40;;;;;;;23.34;32.33;99331.54;105759;1277;96625;-65
2022/09/02 11:40:08;;;;;;;6.00;2.30;;;;;;;23.27;32.26;99332.39;105926;1276;99333;-66
2022/09/02 11:43:22;;;;;;;3.70;2.10;;;;;;;23.19;32.31;99328.95;105867;1276;113894;-66
2022/09/02 11:46:13;;;;;;;5.40;2.40;;;;;;;23.09;32.15;99326.56;105903;1276;99106;-65
2022/09/02 11:49:23;;;;;;;5.10;2.20;;;;;;;23.06;32.41;99320.02;105868;1276;107664;-67
2022/09/02 11:52:07;;;;;;;8.10;2.20;;;;;;;23.04;32.14;99318.27;105934;1276;97842;-66
2022/09/02 11:54:47;;;;;;;6.90;2.20;;;;;;;22.98;32.26;99312.85;105921;1276;99315;-66
2022/09/02 11:57:27;;;;;;;6.30;2.50;;;;;;;22.96;32.39;99308.77;105899;1276;112661;-66
2022/09/02 11:59:55;;;;;;;11.90;2.50;;;;;;;22.97;32.31;99305.98;105975;1276;97528;-67